Time;durP1;ratioP1;P1;durP2;ratioP2;P2;SDS_P1;SDS_P2;PMS_P1;PMS_P2;Temp;Humidity;BMP_temperature;BMP_pressure;BME280_temperature;BME280_humidity;BME280_pressure;Samples;Min_cycle;Max_cycle;Signal;HPM_P1;HPM_P2
2022/11/03 00:01:32;;;;;;;10.95;2.10;;;12.20;83.00;;;;;;4946184;28;20058;-79
2022/11/03 00:03:58;;;;;;;16.38;2.53;;;12.20;83.20;;;;;;4960027;28;20085;-79
2022/11/03 00:06:23;;;;;;;13.02;1.67;;;12.20;83.40;;;;;;4960303;28;20443;-78
2022/11/03 00:08:49;;;;;;;16.10;1.95;;;12.20;83.40;;;;;;4978230;28;20537;-79
2022/11/03 00:11:15;;;;;;;13.00;2.70;;;12.20;83.90;;;;;;4960611;28;20514;-79
2022/11/03 00:13:42;;;;;;;11.65;1.52;;;12.20;84.10;;;;;;4944310;28;20467;-79
2022/11/03 00:16:11;;;;;;;13.32;1.85;;;12.30;83.50;;;;;;4943897;28;20166;-79
2022/11/03 00:18:37;;;;;;;17.67;2.20;;;12.30;83.60;;;;;;4977430;28;20066;-79
2022/11/03 00:21:09;;;;;;;10.50;1.73;;;12.30;83.80;;;;;;4943908;28;20027;-78
2022/11/03 00:23:40;;;;;;;16.02;2.00;;;12.20;83.80;;;;;;4977299;28;20459;-79
2022/11/03 00:26:17;;;;;;;13.40;1.80;;;12.20;84.00;;;;;;4943680;28;20035;-78
2022/11/03 00:28:45;;;;;;;13.98;2.75;;;12.30;84.10;;;;;;4959709;28;20014;-78
2022/11/03 00:31:16;;;;;;;13.57;2.78;;;12.30;84.20;;;;;;4959805;28;20046;-78
2022/11/03 00:33:42;;;;;;;11.27;1.48;;;12.30;84.10;;;;;;4958950;28;20029;-78
2022/11/03 00:36:12;;;;;;;10.80;1.60;;;12.20;84.10;;;;;;4977341;28;20031;-78
2022/11/03 00:38:37;;;;;;;15.63;2.45;;;12.30;84.10;;;;;;4976657;28;20085;-78
2022/11/03 00:41:05;;;;;;;15.95;2.78;;;12.20;84.00;;;;;;4959548;28;20122;-78
2022/11/03 00:43:32;;;;;;;13.38;2.20;;;12.20;84.30;;;;;;4959723;28;20473;-78
2022/11/03 00:45:58;;;;;;;14.15;2.10;;;12.20;84.30;;;;;;4959608;28;20039;-78
2022/11/03 00:48:31;;;;;;;14.20;1.70;;;12.20;84.30;;;;;;4976647;28;20493;-78
2022/11/03 00:51:05;;;;;;;8.50;1.23;;;12.20;84.20;;;;;;4944181;28;20031;-78
2022/11/03 00:53:33;;;;;;;11.45;1.60;;;12.30;84.30;;;;;;4959467;28;20382;-78
2022/11/03 00:55:59;;;;;;;12.70;1.45;;;12.30;84.20;;;;;;4976557;28;20035;-78
2022/11/03 00:58:25;;;;;;;9.23;1.73;;;12.20;84.40;;;;;;4942988;28;20082;-78
2022/11/03 01:01:06;;;;;;;16.67;2.15;;;12.30;84.40;;;;;;4959385;28;20027;-78
2022/11/03 01:03:33;;;;;;;10.43;1.52;;;12.30;84.40;;;;;;4976655;28;20105;-78
2022/11/03 01:08:43;;;;;;;12.85;1.90;;;12.30;84.50;;;;;;4976452;28;20064;-78
2022/11/03 01:13:56;;;;;;;11.15;1.58;;;12.30;84.50;;;;;;4976490;28;20045;-80
2022/11/03 01:16:22;;;;;;;13.80;2.13;;;12.20;84.50;;;;;;4958739;28;20034;-79
2022/11/03 01:18:49;;;;;;;12.75;1.98;;;12.20;84.80;;;;;;4976560;28;20045;-79
2022/11/03 01:21:15;;;;;;;9.63;1.73;;;12.20;84.90;;;;;;4958781;28;20047;-79
2022/11/03 01:23:41;;;;;;;14.95;2.13;;;12.20;84.80;;;;;;4943100;28;20074;-78
2022/11/03 01:26:08;;;;;;;11.52;1.98;;;12.20;84.90;;;;;;4958545;28;20122;-78
2022/11/03 01:28:35;;;;;;;15.05;1.58;;;12.20;85.00;;;;;;4976377;28;20038;-79
2022/11/03 01:31:08;;;;;;;10.40;1.40;;;12.20;84.80;;;;;;4942883;28;20031;-79
2022/11/03 01:33:34;;;;;;;10.70;1.40;;;12.20;84.80;;;;;;4975356;28;20062;-79
2022/11/03 01:35:59;;;;;;;9.20;1.70;;;12.20;85.10;;;;;;4974980;28;20038;-78
2022/11/03 01:38:26;;;;;;;10.32;1.45;;;12.20;85.20;;;;;;4974702;28;20030;-78
2022/11/03 01:40:51;;;;;;;9.93;1.30;;;12.20;85.30;;;;;;4923380;29;20101;-78
2022/11/03 01:43:22;;;;;;;13.55;2.55;;;12.20;85.20;;;;;;4955419;29;20023;-79
2022/11/03 01:46:21;;;;;;;9.90;1.63;;;12.20;85.40;;;;;;4956169;28;20162;-79
2022/11/03 01:49:02;;;;;;;11.18;1.95;;;12.20;85.50;;;;;;4954566;29;20043;-79
2022/11/03 01:51:31;;;;;;;12.20;2.42;;;12.20;85.60;;;;;;4956395;28;20483;-78
2022/11/03 01:53:58;;;;;;;15.90;2.00;;;12.20;85.70;;;;;;4956083;28;20085;-79
2022/11/03 01:56:25;;;;;;;11.80;1.50;;;12.20;85.70;;;;;;4939453;29;20130;-78
2022/11/03 01:58:53;;;;;;;10.60;1.75;;;12.20;85.90;;;;;;4955023;29;20035;-78
2022/11/03 02:01:20;;;;;;;12.40;1.87;;;12.20;86.00;;;;;;4955130;29;20460;-78
2022/11/03 02:04:01;;;;;;;12.65;1.80;;;12.20;85.80;;;;;;4923190;29;20032;-78
2022/11/03 02:06:29;;;;;;;8.32;1.77;;;12.10;86.10;;;;;;4954761;29;20042;-78
2022/11/03 02:09:05;;;;;;;8.45;2.08;;;12.10;86.10;;;;;;4954925;29;20129;-78
2022/11/03 02:14:16;;;;;;;11.52;1.70;;;12.10;86.30;;;;;;4956267;29;20046;-78
2022/11/03 02:16:48;;;;;;;8.98;1.50;;;12.10;86.50;;;;;;4954868;29;20028;-78
2022/11/03 02:19:49;;;;;;;11.75;2.13;;;12.10;86.50;;;;;;4954088;28;20039;-78
2022/11/03 02:22:33;;;;;;;11.98;2.10;;;12.10;86.50;;;;;;4970723;28;20023;-78
2022/11/03 02:25:16;;;;;;;12.48;1.48;;;12.00;86.60;;;;;;4954718;29;20078;-78
2022/11/03 02:27:42;;;;;;;17.90;1.92;;;12.00;86.70;;;;;;4955846;29;20107;-78
2022/11/03 02:30:08;;;;;;;13.18;1.58;;;12.00;86.80;;;;;;4955657;28;20037;-79
2022/11/03 02:32:51;;;;;;;12.07;2.53;;;12.00;86.90;;;;;;4938050;29;20039;-78
2022/11/03 02:35:28;;;;;;;14.95;1.63;;;12.00;87.00;;;;;;4954377;29;20071;-79
2022/11/03 02:37:58;;;;;;;9.25;1.80;;;12.00;86.90;;;;;;4970268;28;20074;-79
2022/11/03 02:40:36;;;;;;;8.82;1.73;;;12.00;87.10;;;;;;4954372;29;20043;-78
2022/11/03 02:43:03;;;;;;;13.68;1.70;;;12.00;87.30;;;;;;4954181;29;20027;-79
2022/11/03 02:45:30;;;;;;;12.98;1.77;;;11.90;87.10;;;;;;4938406;29;20047;-79
2022/11/03 02:47:58;;;;;;;14.23;1.90;;;12.00;87.30;;;;;;4938355;29;20051;-79
2022/11/03 02:50:29;;;;;;;9.95;1.70;;;12.00;87.40;;;;;;4954005;29;20047;-79
2022/11/03 02:52:55;;;;;;;11.98;1.38;;;12.00;87.40;;;;;;4954024;29;20073;-78
2022/11/03 02:55:38;;;;;;;13.15;2.35;;;12.00;87.60;;;;;;4938161;29;20122;-79
2022/11/03 02:58:28;;;;;;;11.73;1.95;;;12.00;87.50;;;;;;4954251;29;20031;-78
2022/11/03 03:01:31;;;;;;;10.88;1.63;;;12.00;87.60;;;;;;4954456;29;20031;-79
2022/11/03 03:04:06;;;;;;;13.98;1.52;;;12.00;87.50;;;;;;4954934;28;20027;-79
2022/11/03 03:06:34;;;;;;;10.82;1.75;;;12.00;87.40;;;;;;4953751;29;20027;-79
2022/11/03 03:09:04;;;;;;;13.18;1.83;;;12.00;87.50;;;;;;4969792;28;20389;-78
2022/11/03 03:11:36;;;;;;;10.65;1.40;;;12.00;87.80;;;;;;4955277;28;20102;-78
2022/11/03 03:14:36;;;;;;;7.22;1.50;;;12.00;87.60;;;;;;4923965;29;20031;-78
2022/11/03 03:17:09;;;;;;;6.72;1.48;;;12.00;87.70;;;;;;4943375;29;20042;-78
2022/11/03 03:19:46;;;;;;;9.02;1.50;;;12.00;87.60;;;;;;4953423;29;20583;-78
2022/11/03 03:22:20;;;;;;;12.52;1.75;;;12.00;87.70;;;;;;4955085;29;20038;-78
2022/11/03 03:25:15;;;;;;;13.35;1.67;;;11.90;87.80;;;;;;4953608;29;20039;-78
2022/11/03 03:27:46;;;;;;;6.80;1.27;;;11.90;87.80;;;;;;4952992;29;20039;-79
2022/11/03 03:30:12;;;;;;;6.55;1.48;;;11.90;88.00;;;;;;4954918;28;20027;-78
2022/11/03 03:32:42;;;;;;;10.35;1.30;;;11.90;87.80;;;;;;4939921;29;20054;-79
2022/11/03 03:35:11;;;;;;;15.75;2.47;;;11.90;88.20;;;;;;4974019;28;20019;-79
2022/11/03 03:37:42;;;;;;;17.90;2.47;;;11.90;88.20;;;;;;4958866;28;20049;-78
2022/11/03 03:40:11;;;;;;;12.15;2.08;;;11.90;88.40;;;;;;4971419;28;20057;-79
2022/11/03 03:42:38;;;;;;;12.48;1.73;;;11.80;88.20;;;;;;4960488;28;20030;-79
2022/11/03 03:45:06;;;;;;;8.13;1.47;;;11.90;88.40;;;;;;4976723;28;20081;-79
2022/11/03 03:47:33;;;;;;;16.57;1.60;;;11.80;88.40;;;;;;4960670;28;20086;-78
2022/11/03 03:50:00;;;;;;;9.93;2.00;;;11.90;88.60;;;;;;4960744;28;20039;-78
2022/11/03 03:52:27;;;;;;;11.03;2.33;;;11.80;88.60;;;;;;4944881;28;20039;-78
2022/11/03 03:54:55;;;;;;;8.83;1.33;;;11.80;88.90;;;;;;4960551;28;20066;-77
2022/11/03 03:57:23;;;;;;;10.77;1.90;;;11.80;88.70;;;;;;4944834;28;20119;-79
2022/11/03 03:59:49;;;;;;;13.47;1.73;;;11.80;88.70;;;;;;4977784;28;20018;-78
2022/11/03 04:02:15;;;;;;;16.03;2.20;;;11.80;89.30;;;;;;4944591;28;20035;-78
2022/11/03 04:04:41;;;;;;;11.18;1.95;;;11.80;89.20;;;;;;4977435;28;20049;-78
2022/11/03 04:09:52;;;;;;;7.82;1.35;;;11.80;89.40;;;;;;4977881;28;20178;-79
2022/11/03 04:23:17;;;;;;;12.10;1.98;;;11.80;90.00;;;;;;4977534;28;20395;-78
2022/11/03 04:25:49;;;;;;;10.38;1.83;;;11.80;89.80;;;;;;4959544;28;20054;-78
2022/11/03 04:28:15;;;;;;;10.02;1.70;;;11.80;90.00;;;;;;4977298;28;20023;-78
2022/11/03 04:30:41;;;;;;;8.47;1.83;;;11.80;90.20;;;;;;4944286;28;20109;-79
2022/11/03 04:33:19;;;;;;;8.80;1.95;;;11.80;90.00;;;;;;4956314;28;20153;-79
2022/11/03 04:35:46;;;;;;;13.03;1.93;;;11.90;90.00;;;;;;4978124;28;20030;-78
2022/11/03 04:38:15;;;;;;;9.82;1.55;;;11.90;90.20;;;;;;4977577;28;20098;-79
2022/11/03 04:40:46;;;;;;;12.98;1.42;;;11.90;90.20;;;;;;4995877;28;20046;-78
2022/11/03 04:43:13;;;;;;;7.45;1.80;;;11.90;90.20;;;;;;4978127;28;20029;-78
2022/11/03 04:45:41;;;;;;;10.00;1.70;;;11.90;90.20;;;;;;4978211;28;20045;-78
2022/11/03 04:48:13;;;;;;;9.43;2.05;;;11.90;90.20;;;;;;4978667;28;20030;-78
2022/11/03 04:50:40;;;;;;;11.25;1.50;;;11.90;90.20;;;;;;4978689;28;20081;-78
2022/11/03 04:53:13;;;;;;;12.15;1.92;;;11.90;90.20;;;;;;4962734;28;20030;-78
2022/11/03 04:55:40;;;;;;;12.38;1.90;;;11.90;90.30;;;;;;4978692;28;20027;-79
2022/11/03 04:58:25;;;;;;;10.98;1.55;;;12.00;90.30;;;;;;4962654;28;20058;-78
2022/11/03 05:00:52;;;;;;;15.13;2.42;;;12.00;90.30;;;;;;4996111;28;20050;-78
2022/11/03 05:03:33;;;;;;;7.97;1.95;;;12.00;90.40;;;;;;4995674;28;20065;-78
2022/11/03 05:06:29;;;;;;;12.82;1.45;;;12.00;90.40;;;;;;4978135;28;20471;-78
2022/11/03 05:09:01;;;;;;;9.95;1.70;;;12.00;90.40;;;;;;4982854;28;20101;-78
2022/11/03 05:11:35;;;;;;;13.48;2.40;;;12.00;90.50;;;;;;4995987;28;20023;-78
2022/11/03 05:14:08;;;;;;;13.77;2.15;;;12.10;90.60;;;;;;4995482;28;20377;-79
2022/11/03 05:16:34;;;;;;;12.93;2.20;;;12.00;90.50;;;;;;4978559;28;20031;-78
2022/11/03 05:19:00;;;;;;;12.60;1.70;;;12.10;90.50;;;;;;4977895;28;20067;-78
2022/11/03 05:21:27;;;;;;;9.77;1.80;;;12.10;90.60;;;;;;4978201;28;20034;-78
2022/11/03 05:24:01;;;;;;;7.72;1.60;;;12.10;90.70;;;;;;4978477;28;20031;-80
2022/11/03 05:26:32;;;;;;;9.82;1.60;;;12.10;90.70;;;;;;4977822;28;20080;-79
2022/11/03 05:29:03;;;;;;;9.27;1.65;;;12.10;90.60;;;;;;4996027;28;20023;-78
2022/11/03 05:31:31;;;;;;;14.80;2.35;;;12.10;90.70;;;;;;4978005;28;20023;-78
2022/11/03 05:34:02;;;;;;;13.95;2.17;;;12.20;90.80;;;;;;4961957;28;20030;-79
2022/11/03 05:36:32;;;;;;;9.50;1.88;;;12.20;90.80;;;;;;4994936;28;20041;-79
2022/11/03 05:39:20;;;;;;;13.23;1.95;;;12.20;90.80;;;;;;4995027;28;20063;-78
2022/11/03 05:41:46;;;;;;;10.65;2.03;;;12.20;90.90;;;;;;4978075;28;20034;-79
2022/11/03 05:44:39;;;;;;;9.40;1.83;;;12.20;91.00;;;;;;4961580;28;20486;-80
2022/11/03 05:47:17;;;;;;;14.23;1.95;;;12.20;91.00;;;;;;4995481;28;20117;-79
2022/11/03 05:49:43;;;;;;;8.50;1.73;;;12.20;91.00;;;;;;4994298;28;20076;-80
2022/11/03 05:52:26;;;;;;;15.80;2.08;;;12.20;91.00;;;;;;4961500;28;20446;-80
2022/11/03 05:54:54;;;;;;;13.55;1.95;;;12.30;91.10;;;;;;4976720;28;20130;-79
2022/11/03 05:57:20;;;;;;;14.05;2.38;;;12.30;91.20;;;;;;4983535;28;20037;-80
2022/11/03 05:59:49;;;;;;;8.75;1.40;;;12.30;91.20;;;;;;4988827;28;20030;-79
2022/11/03 06:02:40;;;;;;;8.20;1.40;;;12.30;91.20;;;;;;4975747;28;20031;-80
2022/11/03 06:05:18;;;;;;;15.05;2.33;;;12.30;91.10;;;;;;4964997;28;20097;-79
2022/11/03 06:07:44;;;;;;;9.85;1.23;;;12.30;91.20;;;;;;4979813;28;20110;-80
2022/11/03 06:10:24;;;;;;;12.50;2.05;;;12.30;91.20;;;;;;4957926;28;20118;-79
2022/11/03 06:12:50;;;;;;;11.40;1.77;;;12.30;91.30;;;;;;4983324;28;20030;-79
2022/11/03 06:15:27;;;;;;;10.43;2.13;;;12.40;91.30;;;;;;4975743;28;20030;-79
2022/11/03 06:17:52;;;;;;;15.80;1.70;;;12.40;91.40;;;;;;4992616;28;20023;-79
2022/11/03 06:20:21;;;;;;;11.30;1.52;;;12.40;91.50;;;;;;4942883;28;20085;-79
2022/11/03 06:22:49;;;;;;;11.75;2.00;;;12.40;91.50;;;;;;4990674;28;20081;-78
2022/11/03 06:25:30;;;;;;;7.78;1.77;;;12.40;91.50;;;;;;4980983;28;20042;-78
2022/11/03 06:28:02;;;;;;;9.40;1.98;;;12.40;91.40;;;;;;4986291;28;20081;-78
2022/11/03 06:30:29;;;;;;;8.00;1.30;;;12.40;91.50;;;;;;4985604;28;20022;-78
2022/11/03 06:33:02;;;;;;;10.80;1.85;;;12.40;91.40;;;;;;4960357;28;20438;-78
2022/11/03 06:35:28;;;;;;;9.90;1.42;;;12.40;91.50;;;;;;4988590;28;20569;-79
2022/11/03 06:37:56;;;;;;;9.35;2.25;;;12.40;91.50;;;;;;4991555;28;20033;-78
2022/11/03 06:40:23;;;;;;;11.25;1.42;;;12.40;91.50;;;;;;4991740;28;20042;-79
2022/11/03 06:42:52;;;;;;;12.23;2.55;;;12.40;91.50;;;;;;4991378;28;20504;-78
2022/11/03 06:45:20;;;;;;;8.82;2.05;;;12.40;91.50;;;;;;4958139;28;20471;-78
2022/11/03 06:47:46;;;;;;;10.73;2.13;;;12.40;91.60;;;;;;4986432;28;20532;-78
2022/11/03 06:50:31;;;;;;;9.07;1.90;;;12.40;91.50;;;;;;4955559;28;20037;-79
2022/11/03 06:53:00;;;;;;;14.43;1.92;;;12.40;91.50;;;;;;4955490;28;20019;-78
2022/11/03 06:55:28;;;;;;;11.65;2.28;;;12.40;91.60;;;;;;4956671;28;20093;-78
2022/11/03 06:57:59;;;;;;;8.73;1.88;;;12.40;91.60;;;;;;4975086;28;20294;-78
2022/11/03 07:00:29;;;;;;;11.82;1.77;;;12.40;91.60;;;;;;4992530;28;20038;-78
2022/11/03 07:03:07;;;;;;;16.70;2.40;;;12.40;91.70;;;;;;4992239;28;20470;-78
2022/11/03 07:05:33;;;;;;;7.90;1.80;;;12.40;91.70;;;;;;4987634;28;20068;-79
2022/11/03 07:08:13;;;;;;;10.20;1.85;;;12.50;91.80;;;;;;4964523;28;20037;-78
2022/11/03 07:10:39;;;;;;;9.90;2.22;;;12.40;91.80;;;;;;4966145;28;20079;-78
2022/11/03 07:13:23;;;;;;;12.40;2.30;;;12.50;91.90;;;;;;4975081;28;20556;-80
2022/11/03 07:15:50;;;;;;;19.27;3.97;;;12.50;91.90;;;;;;4961618;28;20035;-80
2022/11/03 07:18:25;;;;;;;13.63;2.20;;;12.50;92.30;;;;;;4956072;28;20023;-78
2022/11/03 07:20:53;;;;;;;17.15;2.55;;;12.50;92.00;;;;;;4956485;28;20027;-78
2022/11/03 07:23:23;;;;;;;10.43;2.00;;;12.50;92.10;;;;;;4956621;28;20034;-79
2022/11/03 07:25:55;;;;;;;10.90;2.13;;;12.60;92.10;;;;;;4973731;28;20038;-79
2022/11/03 07:28:28;;;;;;;14.07;2.10;;;12.60;92.10;;;;;;4956705;28;20027;-79
2022/11/03 07:30:53;;;;;;;12.70;2.58;;;12.70;92.00;;;;;;4956325;28;20030;-79
2022/11/03 07:33:23;;;;;;;11.60;2.10;;;12.70;92.00;;;;;;4940452;28;20031;-79
2022/11/03 07:35:50;;;;;;;14.75;2.40;;;12.70;92.00;;;;;;4956182;28;20023;-79
2022/11/03 07:38:23;;;;;;;11.25;2.10;;;12.70;92.00;;;;;;4957185;28;20114;-78
2022/11/03 07:40:51;;;;;;;9.25;1.77;;;12.80;92.00;;;;;;4940682;28;20051;-80
2022/11/03 07:43:30;;;;;;;16.20;2.33;;;12.80;92.00;;;;;;4972749;28;20026;-81
2022/11/03 07:46:02;;;;;;;11.70;2.20;;;12.90;91.90;;;;;;4974020;28;20043;-80
2022/11/03 07:48:49;;;;;;;14.48;2.17;;;12.90;91.90;;;;;;4979334;28;20037;-80
2022/11/03 07:51:23;;;;;;;14.55;2.45;;;12.90;91.80;;;;;;4993628;28;20031;-80
2022/11/03 07:53:49;;;;;;;;;;;13.00;91.90;;;;;;4973234;28;20386;-80
2022/11/03 07:56:20;;;;;;;12.82;2.20;;;13.00;91.80;;;;;;4967533;28;19914;-81
2022/11/03 07:59:07;;;;;;;12.98;2.25;;;13.00;91.70;;;;;;4976026;28;20037;-81
2022/11/03 08:01:40;;;;;;;12.45;2.15;;;13.10;91.70;;;;;;4982461;28;20034;-81
2022/11/03 08:04:11;;;;;;;22.30;2.17;;;13.10;91.60;;;;;;4975452;28;20025;-79
2022/11/03 08:06:36;;;;;;;9.15;2.05;;;13.10;91.50;;;;;;4976064;28;20109;-80
2022/11/03 08:09:02;;;;;;;12.63;2.50;;;13.10;91.50;;;;;;4959551;28;20548;-78
2022/11/03 08:11:28;;;;;;;12.88;1.55;;;13.20;91.50;;;;;;4973583;28;20026;-87
2022/11/03 08:13:53;;;;;;;15.40;2.85;;;13.20;91.50;;;;;;4959049;28;20105;-87
2022/11/03 08:16:19;;;;;;;13.55;2.33;;;13.20;91.40;;;;;;4963382;28;20039;-85
2022/11/03 08:18:45;;;;;;;12.18;2.20;;;13.30;91.40;;;;;;4943927;28;20023;-85
2022/11/03 08:21:12;;;;;;;15.05;3.08;;;13.20;91.30;;;;;;4945638;28;20039;-84
2022/11/03 08:23:38;;;;;;;15.68;2.13;;;13.30;91.30;;;;;;4960993;28;20031;-84
2022/11/03 08:26:03;;;;;;;8.95;1.77;;;13.30;91.20;;;;;;4944780;28;20409;-85
2022/11/03 08:28:30;;;;;;;11.02;1.80;;;13.30;91.20;;;;;;4954956;28;20034;-85
2022/11/03 08:31:00;;;;;;;11.60;1.92;;;13.40;91.20;;;;;;4980813;28;20053;-86
2022/11/03 08:33:27;;;;;;;8.55;2.20;;;13.40;91.10;;;;;;4951121;28;20030;-86
2022/11/03 08:35:53;;;;;;;13.85;2.13;;;13.40;91.10;;;;;;4967244;28;20030;-88
2022/11/03 08:38:19;;;;;;;8.73;1.30;;;13.40;91.10;;;;;;4980389;28;20070;-84
2022/11/03 08:40:45;;;;;;;9.07;1.40;;;13.40;91.00;;;;;;4997088;28;20081;-84
2022/11/03 08:43:10;;;;;;;12.80;2.15;;;13.50;91.00;;;;;;4982555;28;20037;-84
2022/11/03 08:45:36;;;;;;;9.57;1.70;;;13.50;90.90;;;;;;4968394;28;20042;-86
2022/11/03 08:48:02;;;;;;;13.25;1.65;;;13.50;90.80;;;;;;4965951;28;20046;-86
2022/11/03 08:50:27;;;;;;;12.32;1.95;;;13.60;90.80;;;;;;4967837;28;20027;-83
2022/11/03 08:52:53;;;;;;;10.60;2.03;;;13.50;90.70;;;;;;4963019;28;20034;-85
2022/11/03 08:55:19;;;;;;;10.35;1.35;;;13.60;90.70;;;;;;4946876;28;20117;-82
2022/11/03 08:57:46;;;;;;;9.23;2.05;;;13.60;90.60;;;;;;4947625;28;20030;-91
2022/11/03 09:00:12;;;;;;;10.15;1.80;;;13.70;90.60;;;;;;4947904;28;20492;-85
2022/11/03 09:02:38;;;;;;;10.43;1.73;;;13.70;90.50;;;;;;4960073;28;20061;-84
2022/11/03 09:05:04;;;;;;;12.05;1.73;;;13.80;90.50;;;;;;4972382;28;20076;-84
2022/11/03 09:07:30;;;;;;;8.18;1.88;;;13.80;90.30;;;;;;4962330;28;20031;-88
2022/11/03 09:09:56;;;;;;;12.25;2.03;;;13.90;90.20;;;;;;4964567;28;20034;-85
2022/11/03 09:12:22;;;;;;;6.30;1.73;;;13.90;90.10;;;;;;4979619;28;20478;-84
2022/11/03 09:14:47;;;;;;;7.25;1.42;;;14.00;90.10;;;;;;4979552;28;20498;-85
2022/11/03 09:17:13;;;;;;;7.00;1.23;;;14.10;90.00;;;;;;4962840;28;20074;-89
2022/11/03 09:19:38;;;;;;;10.23;1.90;;;14.10;90.00;;;;;;4962254;28;20038;-85
2022/11/03 09:22:04;;;;;;;10.65;2.03;;;14.10;89.60;;;;;;4978988;28;20038;-85
2022/11/03 09:24:30;;;;;;;22.65;4.05;;;14.10;89.40;;;;;;4962881;28;20084;-86
2022/11/03 09:26:55;;;;;;;10.80;2.03;;;14.20;89.30;;;;;;4996043;28;20065;-88
2022/11/03 09:29:21;;;;;;;11.02;1.98;;;14.20;89.20;;;;;;4957331;28;20039;-87
2022/11/03 09:31:47;;;;;;;57.65;8.40;;;14.20;89.00;;;;;;4943636;28;20081;-87
2022/11/03 09:34:13;;;;;;;28.38;4.75;;;14.30;88.90;;;;;;4942883;28;20027;-87
2022/11/03 09:36:39;;;;;;;53.47;7.85;;;14.30;88.60;;;;;;4959175;28;20520;-87
2022/11/03 09:39:04;;;;;;;17.88;2.55;;;14.40;88.50;;;;;;4959841;28;20034;-86
2022/11/03 09:41:31;;;;;;;13.88;2.20;;;14.50;88.60;;;;;;4958407;28;20059;-85
2022/11/03 09:43:57;;;;;;;8.63;1.95;;;14.60;88.50;;;;;;4956556;29;20040;-88
2022/11/03 09:46:24;;;;;;;11.50;1.67;;;14.70;88.10;;;;;;4940463;29;20054;-87
2022/11/03 09:48:50;;;;;;;9.85;1.23;;;14.90;87.80;;;;;;4957343;29;20411;-90
2022/11/03 09:51:21;;;;;;;11.02;1.90;;;15.10;87.70;;;;;;4941416;29;20040;-91
2022/11/03 09:53:47;;;;;;;8.27;1.20;;;15.30;87.10;;;;;;4957680;29;20036;-92
2022/11/03 09:56:20;;;;;;;9.10;1.90;;;15.40;86.40;;;;;;4963940;28;20059;-90
2022/11/03 09:58:46;;;;;;;9.68;2.20;;;15.50;85.40;;;;;;4971094;28;20610;-92
2022/11/03 10:01:12;;;;;;;5.90;1.10;;;15.50;84.60;;;;;;4963380;28;20023;-92
2022/11/03 10:03:39;;;;;;;7.32;1.55;;;15.60;84.40;;;;;;4940829;29;20126;-91
2022/11/03 10:06:05;;;;;;;8.15;1.83;;;15.60;83.60;;;;;;4947216;29;20035;-92
2022/11/03 10:08:36;;;;;;;8.13;1.50;;;15.60;83.30;;;;;;4972327;29;20061;-90
2022/11/03 10:11:05;;;;;;;7.68;1.48;;;15.60;83.30;;;;;;4961166;29;20475;-92
2022/11/03 10:13:38;;;;;;;9.60;1.35;;;15.60;82.90;;;;;;4944308;29;20037;-91
2022/11/03 10:16:06;;;;;;;9.63;1.92;;;15.60;82.10;;;;;;4957489;29;20030;-92
2022/11/03 10:18:34;;;;;;;6.90;1.30;;;15.50;82.10;;;;;;4958419;29;20034;-90
2022/11/03 10:21:13;;;;;;;8.70;1.20;;;15.40;81.90;;;;;;4957536;29;20023;-85
2022/11/03 10:23:38;;;;;;;9.80;1.27;;;15.40;81.80;;;;;;4958308;28;20032;-90
2022/11/03 10:26:10;;;;;;;10.05;1.25;;;15.30;81.70;;;;;;4966518;28;20058;-86
2022/11/03 10:28:40;;;;;;;12.57;1.92;;;15.30;81.70;;;;;;4967986;28;20059;-88
2022/11/03 10:31:27;;;;;;;7.55;1.50;;;15.20;81.50;;;;;;4983035;28;20042;-88
2022/11/03 10:33:54;;;;;;;9.80;1.23;;;15.20;81.70;;;;;;4985444;28;20039;-88
2022/11/03 10:36:23;;;;;;;9.02;1.40;;;15.10;81.70;;;;;;4982971;28;20027;-90
2022/11/03 10:38:49;;;;;;;8.07;1.27;;;15.10;81.90;;;;;;4982118;28;20031;-91
2022/11/03 10:41:20;;;;;;;8.20;1.33;;;15.00;81.70;;;;;;4980300;28;20078;-88
2022/11/03 10:44:18;;;;;;;10.38;1.20;;;15.00;81.80;;;;;;5006383;28;20058;-90
2022/11/03 10:47:02;;;;;;;11.73;1.27;;;15.00;81.90;;;;;;4990533;28;20030;-81
2022/11/03 10:49:34;;;;;;;7.53;1.73;;;14.90;82.00;;;;;;4973407;28;20035;-82
2022/11/03 10:52:23;;;;;;;6.25;1.17;;;14.90;81.90;;;;;;4973328;28;20770;-83
2022/11/03 10:54:51;;;;;;;6.28;1.42;;;14.90;81.90;;;;;;4967981;28;20484;-83
2022/11/03 10:57:17;;;;;;;5.97;1.45;;;14.90;81.90;;;;;;4972857;28;20050;-82
2022/11/03 10:59:44;;;;;;;7.82;1.58;;;14.90;81.70;;;;;;4972069;28;20041;-83
2022/11/03 11:02:30;;;;;;;6.93;1.30;;;14.90;81.70;;;;;;4973360;28;20035;-82
2022/11/03 11:04:59;;;;;;;9.93;1.35;;;14.90;81.80;;;;;;4971681;28;20117;-82
2022/11/03 11:07:28;;;;;;;13.07;1.48;;;14.90;81.70;;;;;;4973141;28;20026;-83
2022/11/03 11:09:54;;;;;;;5.88;1.52;;;14.90;81.70;;;;;;4972825;28;20035;-84
2022/11/03 11:12:23;;;;;;;6.43;1.10;;;14.90;81.70;;;;;;4944090;29;20391;-83
2022/11/03 11:14:59;;;;;;;8.43;1.05;;;14.90;81.70;;;;;;4953824;29;20027;-82
2022/11/03 11:17:46;;;;;;;7.28;1.15;;;15.00;81.70;;;;;;4955306;28;20416;-81
2022/11/03 11:20:18;;;;;;;7.90;1.05;;;15.10;81.70;;;;;;4955923;29;20030;-88
2022/11/03 11:22:44;;;;;;;7.72;1.20;;;15.30;81.80;;;;;;4954342;29;20484;-88
2022/11/03 11:25:10;;;;;;;8.23;1.48;;;15.70;81.90;;;;;;4955185;29;20039;-88
2022/11/03 11:27:35;;;;;;;6.95;1.15;;;16.00;80.70;;;;;;4954950;29;20054;-87
2022/11/03 11:30:25;;;;;;;9.18;1.73;;;16.10;79.70;;;;;;4955205;29;20388;-87
2022/11/03 11:33:11;;;;;;;6.68;1.00;;;16.20;78.60;;;;;;4944876;29;20035;-86
2022/11/03 11:35:37;;;;;;;8.90;1.65;;;16.20;77.80;;;;;;4954665;29;20031;-86
2022/11/03 11:38:43;;;;;;;7.97;1.67;;;16.20;77.50;;;;;;4957294;29;20038;-88
2022/11/03 11:41:09;;;;;;;7.18;1.05;;;16.10;77.80;;;;;;4937673;29;20090;-86
2022/11/03 11:43:34;;;;;;;7.78;1.15;;;16.10;77.50;;;;;;4937797;29;20035;-85
2022/11/03 11:46:23;;;;;;;4.30;1.02;;;16.10;77.60;;;;;;4954764;29;20047;-83
2022/11/03 11:49:09;;;;;;;7.40;1.10;;;16.20;77.70;;;;;;4954690;29;20487;-85
2022/11/03 11:51:36;;;;;;;3.45;0.90;;;16.40;77.70;;;;;;4949722;28;20480;-84
2022/11/03 11:54:17;;;;;;;5.60;1.20;;;16.60;77.30;;;;;;4957195;29;20031;-83
2022/11/03 11:56:46;;;;;;;10.35;1.60;;;16.70;76.10;;;;;;4958959;29;20480;-84
2022/11/03 11:59:18;;;;;;;9.90;1.42;;;16.70;75.20;;;;;;4961181;28;20371;-82
2022/11/03 12:01:47;;;;;;;6.10;1.25;;;16.80;74.70;;;;;;4959695;28;20022;-80
2022/11/03 12:04:29;;;;;;;7.30;1.10;;;16.90;74.70;;;;;;4956485;29;20033;-80
2022/11/03 12:06:56;;;;;;;10.82;1.45;;;17.20;74.70;;;;;;4964514;28;20027;-80
2022/11/03 12:09:28;;;;;;;5.57;0.80;;;17.40;73.80;;;;;;4960247;28;20126;-80
2022/11/03 12:11:59;;;;;;;7.57;1.33;;;17.50;72.90;;;;;;4956743;29;20448;-80
2022/11/03 12:14:28;;;;;;;6.72;1.30;;;17.60;72.60;;;;;;4957996;28;20106;-79
2022/11/03 12:16:57;;;;;;;7.15;1.17;;;17.70;72.00;;;;;;4956784;29;20031;-80
2022/11/03 12:19:44;;;;;;;6.80;1.30;;;17.80;71.80;;;;;;4947722;28;20051;-80
2022/11/03 12:22:23;;;;;;;5.82;1.00;;;17.90;70.90;;;;;;4991448;28;20487;-79
2022/11/03 12:24:51;;;;;;;5.50;1.23;;;18.10;70.30;;;;;;4977116;28;20087;-79
2022/11/03 12:27:36;;;;;;;7.53;1.25;;;18.10;69.40;;;;;;4977178;28;20081;-79
2022/11/03 12:30:22;;;;;;;7.88;1.00;;;18.00;69.20;;;;;;4965772;28;20038;-79
2022/11/03 12:32:48;;;;;;;6.65;0.95;;;17.90;69.10;;;;;;4959424;28;20026;-80
2022/11/03 12:35:14;;;;;;;9.85;1.42;;;17.90;69.30;;;;;;4959740;28;20040;-80
2022/11/03 12:37:40;;;;;;;8.60;1.23;;;17.90;69.10;;;;;;4975493;28;20035;-79
2022/11/03 12:40:07;;;;;;;7.05;1.30;;;17.80;68.90;;;;;;4971267;28;20023;-79
2022/11/03 12:42:32;;;;;;;8.27;1.02;;;17.90;68.90;;;;;;4940116;29;20043;-79
2022/11/03 12:44:58;;;;;;;8.50;1.23;;;17.90;69.00;;;;;;4959079;28;20061;-80
2022/11/03 12:47:24;;;;;;;5.47;1.10;;;18.00;68.80;;;;;;4971494;28;20047;-80
2022/11/03 12:49:49;;;;;;;7.78;1.25;;;18.00;68.90;;;;;;4974456;28;20035;-79
2022/11/03 12:52:15;;;;;;;7.18;1.17;;;17.90;68.60;;;;;;4940540;28;20031;-79
2022/11/03 12:54:41;;;;;;;6.63;1.20;;;17.90;68.80;;;;;;4975341;28;20046;-79
2022/11/03 12:57:06;;;;;;;6.25;1.25;;;18.00;68.50;;;;;;4958187;28;20033;-79
2022/11/03 12:59:32;;;;;;;8.23;0.98;;;18.00;68.40;;;;;;4957329;28;20125;-79
2022/11/03 13:01:57;;;;;;;7.30;0.82;;;18.00;68.20;;;;;;4958425;28;20031;-80
2022/11/03 13:04:23;;;;;;;7.93;1.27;;;18.00;68.30;;;;;;4972478;28;20142;-79
2022/11/03 13:06:49;;;;;;;9.20;1.17;;;18.00;68.40;;;;;;4974700;28;20031;-80
2022/11/03 13:09:14;;;;;;;10.85;1.40;;;18.10;68.60;;;;;;4956502;28;20034;-79
2022/11/03 13:14:25;;;;;;;;;;;18.20;67.80;;;;;;4975590;28;20054;-79
2022/11/03 13:16:51;;;;;;;4.95;1.08;;;18.10;67.90;;;;;;4990493;28;19972;-78
2022/11/03 13:19:16;;;;;;;6.35;1.17;;;18.40;68.50;;;;;;4973328;28;20027;-80
2022/11/03 13:21:42;;;;;;;5.75;1.05;;;18.70;67.40;;;;;;4974725;28;20061;-80
2022/11/03 13:24:08;;;;;;;5.70;1.25;;;18.70;66.80;;;;;;4974082;28;20027;-81